Trimdon Station, United Kingdom
Current Conditions -  °F | °C
As of 11:20 AM on Saturday 20 Dec 2014 (Local Time) from EGNV Reporting Station
Few Clouds Few Clouds  
Wind Chill: 38°   Ceiling: Unl
Heat Index: 46°   Visibility: 6mi
Dew Point: 34°   Wind: 24mph
Humidity: 62%   Direction: 280°W
Pressure: 30.09"   Gusts: 36mph
Location:  54.72°N, 1.41°W
Report Text: EGNV 201120Z 28021G31KT 9999 FEW035 08/01 Q1019
Loading
Personal Weather Stations






























Interactive Weather Map New forecast layout! Learn more

10-Day Weather Forecast

Advertisements
Track Severe Weather on mobile